createdAt,value
2019-02-24T00:01:19.620Z,21.75
2019-02-24T00:03:47.812Z,21.76
2019-02-24T00:06:15.988Z,21.76
2019-02-24T00:08:44.161Z,21.82
2019-02-24T00:11:12.377Z,21.77
2019-02-24T00:13:40.563Z,21.76
2019-02-24T00:16:08.725Z,21.72
2019-02-24T00:18:36.915Z,21.69
2019-02-24T00:21:05.096Z,21.67
2019-02-24T00:23:33.259Z,21.69
2019-02-24T00:26:01.446Z,21.67
2019-02-24T00:28:29.648Z,21.67
2019-02-24T00:30:57.814Z,21.67
2019-02-24T00:33:26.007Z,21.67
2019-02-24T00:35:54.257Z,21.68
2019-02-24T00:38:22.424Z,21.67
2019-02-24T00:40:50.598Z,21.65
2019-02-24T00:43:18.838Z,21.67
2019-02-24T00:45:47.025Z,21.67
2019-02-24T00:48:15.195Z,21.64
2019-02-24T00:50:43.369Z,21.64
2019-02-24T00:53:11.509Z,21.66
2019-02-24T00:55:39.671Z,21.63
2019-02-24T00:58:15.776Z,21.62
2019-02-24T01:00:37.669Z,21.61
2019-02-24T01:03:05.845Z,21.62
2019-02-24T01:05:34.053Z,21.61
2019-02-24T01:08:02.297Z,21.64
2019-02-24T01:10:30.464Z,21.59
2019-02-24T01:12:58.648Z,21.55
2019-02-24T01:15:26.840Z,21.54
2019-02-24T01:17:55.056Z,21.57
2019-02-24T01:20:23.233Z,21.54
2019-02-24T01:22:51.388Z,21.54
2019-02-24T01:25:19.593Z,21.52
2019-02-24T01:27:47.808Z,21.53
2019-02-24T01:30:15.973Z,21.52
2019-02-24T01:32:44.172Z,21.53
2019-02-24T01:35:12.361Z,21.51
2019-02-24T01:37:40.532Z,21.51
2019-02-24T01:40:08.735Z,21.52
2019-02-24T01:42:36.921Z,21.47
2019-02-24T01:45:05.074Z,21.56
2019-02-24T01:47:33.247Z,21.53
2019-02-24T01:50:01.465Z,21.54
2019-02-24T01:52:29.622Z,21.48
2019-02-24T01:54:57.849Z,21.51
2019-02-24T01:57:26.023Z,21.50
2019-02-24T01:59:54.237Z,21.47
2019-02-24T02:02:22.436Z,21.46
2019-02-24T02:04:50.671Z,21.45
2019-02-24T02:07:18.843Z,21.45
2019-02-24T02:09:47.045Z,21.43
2019-02-24T02:12:15.220Z,21.43
2019-02-24T02:14:43.400Z,21.41
2019-02-24T02:17:11.610Z,21.41
2019-02-24T02:19:39.789Z,21.39
2019-02-24T02:22:08.063Z,21.40
2019-02-24T02:24:36.306Z,21.42
2019-02-24T02:27:04.511Z,21.40
2019-02-24T02:29:32.741Z,21.40
2019-02-24T02:32:00.982Z,21.37
2019-02-24T02:34:29.311Z,21.37
2019-02-24T02:36:57.503Z,21.36
2019-02-24T02:39:25.662Z,21.34
2019-02-24T02:41:53.840Z,21.35
2019-02-24T02:44:22.012Z,21.36
2019-02-24T02:46:50.302Z,21.35
2019-02-24T02:49:18.461Z,21.36
2019-02-24T02:51:46.642Z,21.38
2019-02-24T02:54:14.805Z,21.38
2019-02-24T02:56:42.976Z,21.40
2019-02-24T02:59:11.161Z,21.40
2019-02-24T03:01:39.336Z,21.37
2019-02-24T03:04:07.528Z,21.33
2019-02-24T03:06:40.587Z,21.32
2019-02-24T03:09:10.864Z,21.31
2019-02-24T03:11:39.117Z,21.31
2019-02-24T03:14:07.310Z,21.31
2019-02-24T03:16:35.552Z,21.28
2019-02-24T03:19:03.739Z,21.28
2019-02-24T03:21:31.929Z,21.31
2019-02-24T03:24:00.105Z,21.30
2019-02-24T03:26:28.359Z,21.26
2019-02-24T03:29:03.910Z,21.27
2019-02-24T03:31:26.601Z,21.28
2019-02-24T03:33:54.787Z,21.23
2019-02-24T03:36:22.989Z,21.28
2019-02-24T03:38:51.143Z,21.26
2019-02-24T03:41:19.356Z,21.28
2019-02-24T03:43:47.523Z,21.27
2019-02-24T03:46:15.696Z,21.25
2019-02-24T03:48:43.945Z,21.25
2019-02-24T03:51:12.145Z,21.23
2019-02-24T03:53:40.292Z,21.21
2019-02-24T03:56:08.824Z,21.20
2019-02-24T03:58:37.123Z,21.18
2019-02-24T04:01:05.341Z,21.21
2019-02-24T04:03:33.532Z,21.20
2019-02-24T04:06:01.737Z,21.20
2019-02-24T04:08:29.943Z,21.20
2019-02-24T04:10:58.133Z,21.19
2019-02-24T04:13:26.358Z,21.17
2019-02-24T04:15:54.586Z,21.19
2019-02-24T04:18:22.834Z,21.18
2019-02-24T04:20:51.004Z,21.19
2019-02-24T04:23:19.201Z,21.17
2019-02-24T04:25:47.406Z,21.15
2019-02-24T04:28:15.718Z,21.14
2019-02-24T04:30:43.956Z,21.12
2019-02-24T04:33:12.191Z,21.13
2019-02-24T04:35:40.388Z,21.14
2019-02-24T04:38:08.582Z,21.11
2019-02-24T04:40:36.761Z,21.11
2019-02-24T04:43:04.992Z,21.13
2019-02-24T04:45:33.133Z,21.12
2019-02-24T04:48:01.299Z,21.12
2019-02-24T04:50:29.463Z,21.10
2019-02-24T04:52:57.624Z,21.07
2019-02-24T04:55:25.818Z,21.07
2019-02-24T04:57:54.024Z,21.04
2019-02-24T05:00:22.221Z,21.04
2019-02-24T05:02:50.381Z,21.05
2019-02-24T05:05:18.645Z,21.07
2019-02-24T05:07:46.802Z,21.04
2019-02-24T05:10:14.981Z,21.06
2019-02-24T05:12:43.186Z,21.05
2019-02-24T05:15:11.348Z,21.06
2019-02-24T05:17:39.602Z,21.04
2019-02-24T05:20:07.821Z,21.03
2019-02-24T05:22:36.063Z,21.04
2019-02-24T05:25:04.271Z,21.01
2019-02-24T05:27:32.482Z,20.99
2019-02-24T05:30:00.709Z,21.01
2019-02-24T05:32:28.887Z,21.00
2019-02-24T05:34:57.176Z,21.00
2019-02-24T05:37:25.392Z,20.99
2019-02-24T05:39:53.584Z,20.97
2019-02-24T05:42:21.770Z,20.95
2019-02-24T05:44:49.977Z,20.97
2019-02-24T05:47:18.215Z,20.99
2019-02-24T05:49:46.405Z,20.99
2019-02-24T05:52:14.570Z,20.98
2019-02-24T05:54:42.737Z,20.97
2019-02-24T05:57:10.909Z,20.95
2019-02-24T05:59:39.112Z,20.92
2019-02-24T06:02:07.275Z,20.96
2019-02-24T06:04:35.496Z,20.91
2019-02-24T06:07:03.712Z,20.90
2019-02-24T06:09:31.880Z,20.90
2019-02-24T06:12:00.146Z,20.92
2019-02-24T06:14:28.400Z,20.92
2019-02-24T06:16:56.533Z,20.94
2019-02-24T06:19:24.738Z,20.90
2019-02-24T06:21:52.892Z,20.89
2019-02-24T06:24:21.188Z,20.89
2019-02-24T06:26:49.441Z,20.85
2019-02-24T06:29:17.612Z,20.91
2019-02-24T06:31:45.782Z,20.92
2019-02-24T06:34:13.965Z,20.95
2019-02-24T06:36:42.198Z,20.94
2019-02-24T06:39:10.338Z,20.93
2019-02-24T06:41:38.538Z,20.89
2019-02-24T06:44:06.795Z,20.89
2019-02-24T06:46:34.950Z,20.90
2019-02-24T06:49:03.153Z,20.86
2019-02-24T06:51:31.321Z,20.86
2019-02-24T06:53:59.509Z,20.86
2019-02-24T06:56:27.806Z,20.88
2019-02-24T06:58:56.029Z,20.88
2019-02-24T07:01:24.200Z,20.88
2019-02-24T07:03:52.343Z,20.88
2019-02-24T07:06:20.608Z,20.90
2019-02-24T07:08:48.835Z,20.89
2019-02-24T07:11:17.031Z,20.90
2019-02-24T07:13:45.159Z,20.88
2019-02-24T07:16:13.420Z,20.89
2019-02-24T07:18:41.719Z,20.90
2019-02-24T07:21:09.941Z,20.91
2019-02-24T07:23:38.156Z,20.93
2019-02-24T07:26:06.344Z,20.91
2019-02-24T07:28:34.554Z,20.95
2019-02-24T07:31:02.718Z,20.99
2019-02-24T07:33:30.903Z,20.96
2019-02-24T07:35:59.127Z,20.97
2019-02-24T07:38:27.291Z,20.96
2019-02-24T07:40:55.509Z,20.95
2019-02-24T07:43:23.731Z,21.02
2019-02-24T07:45:53.967Z,21.01
2019-02-24T07:48:22.258Z,20.81
2019-02-24T07:50:50.405Z,21.04
2019-02-24T07:53:18.626Z,21.08
2019-02-24T07:55:46.775Z,21.12
2019-02-24T07:58:14.913Z,21.14
2019-02-24T08:00:43.071Z,21.21
2019-02-24T08:03:11.244Z,21.19
2019-02-24T08:05:39.486Z,21.16
2019-02-24T08:08:16.070Z,21.20
2019-02-24T08:10:37.493Z,21.16
2019-02-24T08:13:05.683Z,21.26
2019-02-24T08:15:33.985Z,21.23
2019-02-24T08:18:02.124Z,21.28
2019-02-24T08:20:30.408Z,21.24
2019-02-24T08:22:58.579Z,21.23
2019-02-24T08:25:26.775Z,21.28
2019-02-24T08:27:55.590Z,21.20
2019-02-24T08:30:23.894Z,21.18
2019-02-24T08:32:52.011Z,21.19
2019-02-24T08:35:20.271Z,21.18
2019-02-24T08:37:48.431Z,21.14
2019-02-24T08:40:16.581Z,21.18
2019-02-24T08:42:44.776Z,21.19
2019-02-24T08:45:12.943Z,21.14
2019-02-24T08:47:41.106Z,21.12
2019-02-24T08:50:09.313Z,21.16
2019-02-24T08:52:37.522Z,21.12
2019-02-24T08:55:06.012Z,21.18
2019-02-24T08:57:34.173Z,21.21
2019-02-24T09:00:02.401Z,21.30
2019-02-24T09:02:30.558Z,21.32
2019-02-24T09:04:58.755Z,21.30
2019-02-24T09:07:26.922Z,21.26
2019-02-24T09:09:55.092Z,21.15
2019-02-24T09:12:23.322Z,21.17
2019-02-24T09:14:51.512Z,21.13
2019-02-24T09:17:19.654Z,21.24
2019-02-24T09:19:47.868Z,21.25
2019-02-24T09:22:16.036Z,21.29
2019-02-24T09:24:44.255Z,21.32
2019-02-24T09:27:12.415Z,21.35
2019-02-24T09:29:40.646Z,21.32
2019-02-24T09:32:08.830Z,21.31
2019-02-24T09:34:37.027Z,21.24
2019-02-24T09:37:05.207Z,21.36
2019-02-24T09:39:33.383Z,21.33
2019-02-24T09:42:01.565Z,21.24
2019-02-24T09:44:29.765Z,21.24
2019-02-24T09:46:57.963Z,21.29
2019-02-24T09:49:26.245Z,21.25
2019-02-24T09:51:54.395Z,21.27
2019-02-24T09:54:22.566Z,21.27
2019-02-24T09:56:50.762Z,21.22
2019-02-24T09:59:20.203Z,21.26
2019-02-24T10:01:48.358Z,21.27
2019-02-24T10:04:16.473Z,21.33
2019-02-24T10:06:44.710Z,21.36
2019-02-24T10:09:12.907Z,21.35
2019-02-24T10:11:41.112Z,21.35
2019-02-24T10:14:09.277Z,21.33
2019-02-24T10:16:37.611Z,21.30
2019-02-24T10:19:05.771Z,21.28
2019-02-24T10:21:33.916Z,21.28
2019-02-24T10:24:02.060Z,21.31
2019-02-24T10:26:30.237Z,21.25
2019-02-24T10:28:58.420Z,21.29
2019-02-24T10:31:26.613Z,21.31
2019-02-24T10:33:54.789Z,21.31
2019-02-24T10:36:23.006Z,21.36
2019-02-24T10:38:51.247Z,21.33
2019-02-24T10:41:19.511Z,21.35
2019-02-24T10:43:47.679Z,21.34
2019-02-24T10:46:15.872Z,21.34
2019-02-24T10:48:44.083Z,21.35
2019-02-24T10:51:12.300Z,21.31
2019-02-24T10:53:40.484Z,21.25
2019-02-24T10:56:08.648Z,21.31
2019-02-24T10:58:36.846Z,21.32
2019-02-24T11:01:05.053Z,21.28
2019-02-24T11:03:33.171Z,21.27
2019-02-24T11:06:01.390Z,21.26
2019-02-24T11:08:29.568Z,21.30
2019-02-24T11:10:57.772Z,21.21
2019-02-24T11:13:25.964Z,21.17
2019-02-24T11:15:54.109Z,21.18
2019-02-24T11:18:22.235Z,21.18
2019-02-24T11:20:50.383Z,21.22
2019-02-24T11:23:18.509Z,21.19
2019-02-24T11:25:46.648Z,21.18
2019-02-24T11:28:14.811Z,21.22
2019-02-24T11:30:42.941Z,21.21
2019-02-24T11:33:11.078Z,21.19
2019-02-24T11:35:39.217Z,21.17
2019-02-24T11:38:07.382Z,21.27
2019-02-24T11:40:35.576Z,21.35
2019-02-24T11:43:03.710Z,21.38
2019-02-24T11:45:31.850Z,21.34
2019-02-24T11:48:00.075Z,21.34
2019-02-24T11:50:28.247Z,21.40
2019-02-24T11:52:56.381Z,21.36
2019-02-24T11:55:24.512Z,21.29
2019-02-24T11:57:52.681Z,21.35
2019-02-24T12:00:20.813Z,21.40
2019-02-24T12:02:49.029Z,21.44
2019-02-24T12:05:17.206Z,21.45
2019-02-24T12:07:45.373Z,21.49
2019-02-24T12:10:13.509Z,21.54
2019-02-24T12:12:41.650Z,21.51
2019-02-24T12:15:10.021Z,21.60
2019-02-24T12:17:38.181Z,21.60
2019-02-24T12:20:07.311Z,21.60
2019-02-24T12:22:35.428Z,21.59
2019-02-24T12:25:03.575Z,21.52
2019-02-24T12:27:31.713Z,21.53
2019-02-24T12:29:59.854Z,21.65
2019-02-24T12:32:28.006Z,21.58
2019-02-24T12:34:56.124Z,21.58
2019-02-24T12:37:24.265Z,21.59
2019-02-24T12:39:52.393Z,21.66
2019-02-24T12:42:20.537Z,21.65
2019-02-24T12:44:48.663Z,21.65
2019-02-24T12:47:16.824Z,21.62
2019-02-24T12:49:44.979Z,21.59
2019-02-24T12:52:13.148Z,21.62
2019-02-24T12:54:41.335Z,21.64
2019-02-24T12:57:09.460Z,21.67
2019-02-24T12:59:37.681Z,21.60
2019-02-24T13:02:06.085Z,21.54
2019-02-24T13:04:34.489Z,21.53
2019-02-24T13:07:02.801Z,21.47
2019-02-24T13:09:30.923Z,21.42
2019-02-24T13:11:59.065Z,21.41
2019-02-24T13:14:27.214Z,21.35
2019-02-24T13:16:55.487Z,21.38
2019-02-24T13:19:23.663Z,21.39
2019-02-24T13:21:51.799Z,21.43
2019-02-24T13:24:19.938Z,21.41
2019-02-24T13:26:48.203Z,21.42
2019-02-24T13:29:16.371Z,21.46
2019-02-24T13:31:44.504Z,21.44
2019-02-24T13:34:12.658Z,21.47
2019-02-24T13:36:40.788Z,21.45
2019-02-24T13:39:08.930Z,21.49
2019-02-24T13:41:37.066Z,21.48
2019-02-24T13:44:05.204Z,21.51
2019-02-24T13:46:33.344Z,21.44
2019-02-24T13:49:01.485Z,21.44
2019-02-24T13:51:29.636Z,21.48
2019-02-24T13:53:57.779Z,21.51
2019-02-24T13:56:25.949Z,21.56
2019-02-24T13:58:54.141Z,21.54
2019-02-24T14:01:22.285Z,21.58
2019-02-24T14:03:50.423Z,21.61
2019-02-24T14:06:20.332Z,21.62
2019-02-24T14:08:48.349Z,21.63
2019-02-24T14:11:16.498Z,21.62
2019-02-24T14:13:44.630Z,21.64
2019-02-24T14:16:12.770Z,21.59
2019-02-24T14:18:40.905Z,21.63
2019-02-24T14:21:09.031Z,21.60
2019-02-24T14:23:37.167Z,21.63
2019-02-24T14:26:05.321Z,21.67
2019-02-24T14:28:33.472Z,21.62
2019-02-24T14:31:01.622Z,21.67
2019-02-24T14:33:29.760Z,21.62
2019-02-24T14:35:57.892Z,21.66
2019-02-24T14:38:26.072Z,21.67
2019-02-24T14:40:54.195Z,21.65
2019-02-24T14:43:22.336Z,21.64
2019-02-24T14:45:50.472Z,21.67
2019-02-24T14:48:18.611Z,21.71
2019-02-24T14:50:46.749Z,21.70
2019-02-24T14:53:14.897Z,21.73
2019-02-24T14:55:43.064Z,21.70
2019-02-24T14:58:11.207Z,21.71
2019-02-24T15:00:39.357Z,21.69
2019-02-24T15:03:07.597Z,21.67
2019-02-24T15:05:35.723Z,21.69
2019-02-24T15:08:03.862Z,21.63
2019-02-24T15:10:32.013Z,21.64
2019-02-24T15:13:00.249Z,21.61
2019-02-24T15:15:32.910Z,21.61
2019-02-24T15:17:58.937Z,21.58
2019-02-24T15:20:27.157Z,21.62
2019-02-24T15:22:55.374Z,21.60
2019-02-24T15:25:23.526Z,21.60
2019-02-24T15:27:51.717Z,21.65
2019-02-24T15:30:21.462Z,21.63
2019-02-24T15:32:51.969Z,21.59
2019-02-24T15:35:19.512Z,21.58
2019-02-24T15:37:47.681Z,21.63
2019-02-24T15:40:15.827Z,21.62
2019-02-24T15:42:44.012Z,21.62
2019-02-24T15:45:12.179Z,21.62
2019-02-24T15:47:40.341Z,21.62
2019-02-24T15:50:08.532Z,21.55
2019-02-24T15:52:36.711Z,21.53
2019-02-24T15:55:04.935Z,21.54
2019-02-24T15:57:33.147Z,21.55
2019-02-24T16:00:01.357Z,21.59
2019-02-24T16:02:29.574Z,21.53
2019-02-24T16:04:57.776Z,21.54
2019-02-24T16:07:25.920Z,21.53
2019-02-24T16:09:54.095Z,21.52
2019-02-24T16:12:22.317Z,21.54
2019-02-24T16:14:50.465Z,21.52
2019-02-24T16:17:18.642Z,21.51
2019-02-24T16:19:46.815Z,21.52
2019-02-24T16:22:14.992Z,21.49
2019-02-24T16:24:43.371Z,21.51
2019-02-24T16:27:11.557Z,21.49
2019-02-24T16:29:39.734Z,21.49
2019-02-24T16:32:07.921Z,21.47
2019-02-24T16:34:36.102Z,21.49
2019-02-24T16:37:04.256Z,21.47
2019-02-24T16:39:32.492Z,21.44
2019-02-24T16:42:00.709Z,21.43
2019-02-24T16:44:28.901Z,21.42
2019-02-24T16:46:57.080Z,21.43
2019-02-24T16:49:25.234Z,21.47
2019-02-24T16:51:53.397Z,21.45
2019-02-24T16:54:21.594Z,21.42
2019-02-24T16:56:49.934Z,21.44
2019-02-24T16:59:18.137Z,21.36
2019-02-24T17:01:46.299Z,21.40
2019-02-24T17:04:14.474Z,21.41
2019-02-24T17:06:42.668Z,21.41
2019-02-24T17:09:10.838Z,21.42
2019-02-24T17:11:39.034Z,21.37
2019-02-24T17:14:07.299Z,21.38
2019-02-24T17:16:35.493Z,21.36
2019-02-24T17:19:03.672Z,21.37
2019-02-24T17:21:31.859Z,21.35
2019-02-24T17:24:00.052Z,21.30
2019-02-24T17:26:28.226Z,21.35
2019-02-24T17:28:56.447Z,21.34
2019-02-24T17:31:28.454Z,21.33
2019-02-24T17:33:54.481Z,21.33
2019-02-24T17:36:22.661Z,21.32
2019-02-24T17:38:50.888Z,21.29
2019-02-24T17:41:19.081Z,21.28
2019-02-24T17:43:47.316Z,21.24
2019-02-24T17:46:15.555Z,21.26
2019-02-24T17:48:43.717Z,21.25
2019-02-24T17:51:20.618Z,21.21
2019-02-24T17:53:42.824Z,21.19
2019-02-24T17:56:11.128Z,21.23
2019-02-24T17:58:39.367Z,21.22
2019-02-24T18:01:07.531Z,21.22
2019-02-24T18:03:39.764Z,21.22
2019-02-24T18:06:08.099Z,21.22
2019-02-24T18:08:36.307Z,21.20
2019-02-24T18:11:04.479Z,21.19
2019-02-24T18:13:32.670Z,21.16
2019-02-24T18:16:01.156Z,21.14
2019-02-24T18:18:29.348Z,21.12
2019-02-24T18:20:57.586Z,21.17
2019-02-24T18:23:25.840Z,21.18
2019-02-24T18:25:54.008Z,21.15
2019-02-24T18:28:22.217Z,21.19
2019-02-24T18:30:50.399Z,21.17
2019-02-24T18:33:18.568Z,21.16
2019-02-24T18:35:46.792Z,21.11
2019-02-24T18:38:16.015Z,21.12
2019-02-24T18:40:44.232Z,21.10
2019-02-24T18:43:12.413Z,21.12
2019-02-24T18:45:40.637Z,21.13
2019-02-24T18:48:08.800Z,21.12
2019-02-24T18:50:36.993Z,21.12
2019-02-24T18:53:06.501Z,21.10
2019-02-24T18:55:34.804Z,21.08
2019-02-24T18:58:03.054Z,21.09
2019-02-24T19:00:32.603Z,21.07
2019-02-24T19:03:00.946Z,21.06
2019-02-24T19:05:29.249Z,21.07
2019-02-24T19:07:57.359Z,21.08
2019-02-24T19:10:25.489Z,21.09
2019-02-24T19:12:53.664Z,21.07
2019-02-24T19:15:21.815Z,21.10
2019-02-24T19:17:49.959Z,21.08
2019-02-24T19:20:18.441Z,21.05
2019-02-24T19:22:46.571Z,21.05
2019-02-24T19:25:14.711Z,21.06
2019-02-24T19:27:42.841Z,21.05
2019-02-24T19:30:11.926Z,21.05
2019-02-24T19:32:40.137Z,21.05
2019-02-24T19:35:08.584Z,21.06
2019-02-24T19:37:36.736Z,21.04
2019-02-24T19:40:05.540Z,21.05
2019-02-24T19:42:33.697Z,21.06
2019-02-24T19:45:01.826Z,21.04
2019-02-24T19:47:29.980Z,21.02
2019-02-24T19:49:58.169Z,21.03
2019-02-24T19:52:26.257Z,21.02
2019-02-24T19:54:54.412Z,21.03
2019-02-24T19:57:22.654Z,21.06
2019-02-24T19:59:50.817Z,21.04
2019-02-24T20:02:18.973Z,21.05
2019-02-24T20:04:47.113Z,21.04
2019-02-24T20:07:15.267Z,21.01
2019-02-24T20:09:43.393Z,21.00
2019-02-24T20:12:11.539Z,20.98
2019-02-24T20:14:39.672Z,21.01
2019-02-24T20:17:07.804Z,21.01
2019-02-24T20:19:35.950Z,21.00
2019-02-24T20:22:04.113Z,21.00
2019-02-24T20:24:33.224Z,20.98
2019-02-24T20:27:01.388Z,21.00
2019-02-24T20:29:29.536Z,21.00
2019-02-24T20:31:57.672Z,20.95
2019-02-24T20:34:26.023Z,20.86
2019-02-24T20:36:54.175Z,20.99
2019-02-24T20:39:22.345Z,21.08
2019-02-24T20:41:50.485Z,21.14
2019-02-24T20:44:18.631Z,21.10
2019-02-24T20:46:46.755Z,21.12
2019-02-24T20:49:14.897Z,21.05
2019-02-24T20:51:43.087Z,21.08
2019-02-24T20:54:11.223Z,21.04
2019-02-24T20:56:39.633Z,21.05
2019-02-24T20:59:07.786Z,21.05
2019-02-24T21:01:36.060Z,21.01
2019-02-24T21:04:04.229Z,21.03
2019-02-24T21:06:32.354Z,21.03
2019-02-24T21:09:00.508Z,21.03
2019-02-24T21:11:28.645Z,21.00
2019-02-24T21:13:56.809Z,20.97
2019-02-24T21:16:26.023Z,20.94
2019-02-24T21:18:54.340Z,21.00
2019-02-24T21:21:22.494Z,21.00
2019-02-24T21:23:50.620Z,20.98
2019-02-24T21:26:18.802Z,21.01
2019-02-24T21:28:48.923Z,20.99
2019-02-24T21:31:16.889Z,20.99
2019-02-24T21:33:45.016Z,20.98
2019-02-24T21:36:13.158Z,20.94
2019-02-24T21:38:41.285Z,20.94
2019-02-24T21:41:09.433Z,20.96
2019-02-24T21:43:37.569Z,20.98
2019-02-24T21:46:05.710Z,20.97
2019-02-24T21:48:33.865Z,20.97
2019-02-24T21:51:02.018Z,20.95
2019-02-24T21:53:30.145Z,20.95
2019-02-24T21:55:58.297Z,20.92
2019-02-24T21:58:26.428Z,20.92
2019-02-24T22:00:54.584Z,20.92
2019-02-24T22:03:22.716Z,20.92
2019-02-24T22:05:50.865Z,20.93
2019-02-24T22:08:19.004Z,20.95
2019-02-24T22:10:47.125Z,20.95
2019-02-24T22:13:15.269Z,20.90
2019-02-24T22:15:43.406Z,20.91
2019-02-24T22:18:11.547Z,20.87
2019-02-24T22:20:39.676Z,20.88
2019-02-24T22:23:07.833Z,20.87
2019-02-24T22:25:35.963Z,20.87
2019-02-24T22:28:04.113Z,20.86
2019-02-24T22:30:32.283Z,20.86
2019-02-24T22:33:00.380Z,20.89
2019-02-24T22:35:28.535Z,20.86
2019-02-24T22:37:56.673Z,20.85
2019-02-24T22:40:24.814Z,20.84
2019-02-24T22:42:52.950Z,20.86
2019-02-24T22:45:21.105Z,20.82
2019-02-24T22:47:49.241Z,20.83
2019-02-24T22:50:17.379Z,20.86
2019-02-24T22:52:45.540Z,20.81
2019-02-24T22:55:13.770Z,20.80
2019-02-24T22:57:41.900Z,20.81
2019-02-24T23:00:16.410Z,20.80
2019-02-24T23:02:44.554Z,20.78
2019-02-24T23:05:12.706Z,20.79
2019-02-24T23:07:40.853Z,20.77
2019-02-24T23:10:08.999Z,20.78
2019-02-24T23:12:37.125Z,20.78
2019-02-24T23:15:05.365Z,20.78
2019-02-24T23:17:33.509Z,20.76
2019-02-24T23:20:01.642Z,20.77
2019-02-24T23:22:29.828Z,20.76
2019-02-24T23:24:58.346Z,20.77
2019-02-24T23:27:26.582Z,20.76
2019-02-24T23:29:54.743Z,20.73
2019-02-24T23:32:22.953Z,20.69
2019-02-24T23:34:51.116Z,20.75
2019-02-24T23:37:19.325Z,20.72
2019-02-24T23:39:47.592Z,20.73
2019-02-24T23:42:15.791Z,20.76
2019-02-24T23:44:43.939Z,20.75
2019-02-24T23:47:12.088Z,20.71
2019-02-24T23:49:40.277Z,20.71
2019-02-24T23:52:08.468Z,20.68
2019-02-24T23:54:36.720Z,20.70
2019-02-24T23:57:04.940Z,20.69
2019-02-24T23:59:33.096Z,20.68
